sensor_id;sensor_type;location;lat;lon;timestamp;pressure;altitude;pressure_sealevel;temperature;humidity
13367;BME280;6752;52.612;13.630;2023-02-11T00:00:53;102225.29;;;3.60;100.00
13367;BME280;6752;52.612;13.630;2023-02-11T00:06:00;102237.84;;;3.55;100.00
13367;BME280;6752;52.612;13.630;2023-02-11T00:10:58;102248.84;;;3.58;100.00
13367;BME280;6752;52.612;13.630;2023-02-11T00:16:05;102257.94;;;3.62;100.00
13367;BME280;6752;52.612;13.630;2023-02-11T00:21:09;102260.70;;;3.61;100.00
13367;BME280;6752;52.612;13.630;2023-02-11T00:26:17;102233.17;;;3.62;100.00
13367;BME280;6752;52.612;13.630;2023-02-11T00:31:20;102222.67;;;3.69;100.00
13367;BME280;6752;52.612;13.630;2023-02-11T00:36:23;102216.00;;;3.73;100.00
13367;BME280;6752;52.612;13.630;2023-02-11T00:41:24;102205.61;;;3.79;100.00
13367;BME280;6752;52.612;13.630;2023-02-11T00:46:26;102194.28;;;3.74;100.00
13367;BME280;6752;52.612;13.630;2023-02-11T00:51:28;102201.92;;;3.80;100.00
13367;BME280;6752;52.612;13.630;2023-02-11T00:56:31;102199.47;;;3.77;100.00
13367;BME280;6752;52.612;13.630;2023-02-11T01:01:33;102178.03;;;3.75;100.00
13367;BME280;6752;52.612;13.630;2023-02-11T01:06:36;102149.50;;;3.77;100.00
13367;BME280;6752;52.612;13.630;2023-02-11T01:11:38;102149.81;;;3.89;100.00
13367;BME280;6752;52.612;13.630;2023-02-11T01:16:40;102147.89;;;3.95;100.00
13367;BME280;6752;52.612;13.630;2023-02-11T01:21:43;102122.05;;;3.92;100.00
13367;BME280;6752;52.612;13.630;2023-02-11T01:26:45;102115.59;;;4.04;100.00
13367;BME280;6752;52.612;13.630;2023-02-11T01:31:47;102117.01;;;4.08;100.00
13367;BME280;6752;52.612;13.630;2023-02-11T01:36:50;102145.20;;;4.09;100.00
13367;BME280;6752;52.612;13.630;2023-02-11T01:41:52;102140.45;;;4.03;100.00
13367;BME280;6752;52.612;13.630;2023-02-11T01:46:55;102134.27;;;4.06;100.00
13367;BME280;6752;52.612;13.630;2023-02-11T01:52:04;102125.81;;;4.05;100.00
13367;BME280;6752;52.612;13.630;2023-02-11T01:57:05;102118.15;;;4.05;100.00
13367;BME280;6752;52.612;13.630;2023-02-11T02:02:26;102131.27;;;4.14;100.00
13367;BME280;6752;52.612;13.630;2023-02-11T02:07:31;102122.97;;;4.11;100.00
13367;BME280;6752;52.612;13.630;2023-02-11T02:12:30;102130.56;;;4.12;100.00
13367;BME280;6752;52.612;13.630;2023-02-11T02:17:36;102134.39;;;4.14;100.00
13367;BME280;6752;52.612;13.630;2023-02-11T02:22:52;102102.22;;;4.17;100.00
13367;BME280;6752;52.612;13.630;2023-02-11T02:28:15;102094.77;;;4.15;100.00
13367;BME280;6752;52.612;13.630;2023-02-11T02:38:30;102077.41;;;4.22;100.00
13367;BME280;6752;52.612;13.630;2023-02-11T02:43:31;102085.09;;;4.27;100.00
13367;BME280;6752;52.612;13.630;2023-02-11T02:48:33;102083.51;;;4.24;100.00
13367;BME280;6752;52.612;13.630;2023-02-11T02:53:40;102085.52;;;4.27;100.00
13367;BME280;6752;52.612;13.630;2023-02-11T02:58:43;102073.21;;;4.24;100.00
13367;BME280;6752;52.612;13.630;2023-02-11T03:03:53;102073.49;;;4.25;100.00
13367;BME280;6752;52.612;13.630;2023-02-11T03:09:20;102059.44;;;4.22;100.00
13367;BME280;6752;52.612;13.630;2023-02-11T03:14:21;102056.73;;;4.22;100.00
13367;BME280;6752;52.612;13.630;2023-02-11T03:19:24;102051.14;;;4.19;100.00
13367;BME280;6752;52.612;13.630;2023-02-11T03:24:32;102048.77;;;4.25;100.00
13367;BME280;6752;52.612;13.630;2023-02-11T03:29:43;102035.77;;;4.25;100.00
13367;BME280;6752;52.612;13.630;2023-02-11T03:34:54;102043.75;;;4.26;100.00
13367;BME280;6752;52.612;13.630;2023-02-11T03:39:57;102051.06;;;4.30;100.00
13367;BME280;6752;52.612;13.630;2023-02-11T03:45:02;102049.63;;;4.30;100.00
13367;BME280;6752;52.612;13.630;2023-02-11T03:50:00;102042.69;;;4.28;100.00
13367;BME280;6752;52.612;13.630;2023-02-11T03:55:05;102039.89;;;4.34;100.00
13367;BME280;6752;52.612;13.630;2023-02-11T04:00:05;102029.91;;;4.39;100.00
13367;BME280;6752;52.612;13.630;2023-02-11T04:05:08;102045.48;;;4.36;100.00
13367;BME280;6752;52.612;13.630;2023-02-11T04:10:10;102045.17;;;4.44;100.00
13367;BME280;6752;52.612;13.630;2023-02-11T04:15:12;102051.84;;;4.45;100.00
13367;BME280;6752;52.612;13.630;2023-02-11T04:20:14;102054.69;;;4.43;100.00
13367;BME280;6752;52.612;13.630;2023-02-11T04:25:16;102046.80;;;4.46;100.00
13367;BME280;6752;52.612;13.630;2023-02-11T04:30:18;102031.02;;;4.51;100.00
13367;BME280;6752;52.612;13.630;2023-02-11T04:35:21;102033.85;;;4.54;100.00
13367;BME280;6752;52.612;13.630;2023-02-11T04:40:23;102013.90;;;4.51;100.00
13367;BME280;6752;52.612;13.630;2023-02-11T04:45:26;102005.15;;;4.53;100.00
13367;BME280;6752;52.612;13.630;2023-02-11T04:50:28;102012.52;;;4.56;100.00
13367;BME280;6752;52.612;13.630;2023-02-11T04:55:30;101996.59;;;4.58;100.00
13367;BME280;6752;52.612;13.630;2023-02-11T05:00:33;101999.37;;;4.57;100.00
13367;BME280;6752;52.612;13.630;2023-02-11T05:05:39;101977.41;;;4.56;100.00
13367;BME280;6752;52.612;13.630;2023-02-11T05:10:37;101972.06;;;4.60;100.00
13367;BME280;6752;52.612;13.630;2023-02-11T05:15:40;101962.68;;;4.59;100.00
13367;BME280;6752;52.612;13.630;2023-02-11T05:20:42;101964.61;;;4.58;100.00
13367;BME280;6752;52.612;13.630;2023-02-11T05:25:45;101951.95;;;4.58;100.00
13367;BME280;6752;52.612;13.630;2023-02-11T05:30:47;101944.12;;;4.60;100.00
13367;BME280;6752;52.612;13.630;2023-02-11T05:35:49;101950.60;;;4.58;100.00
13367;BME280;6752;52.612;13.630;2023-02-11T05:40:52;101961.61;;;4.61;100.00
13367;BME280;6752;52.612;13.630;2023-02-11T05:45:54;101946.63;;;4.58;100.00
13367;BME280;6752;52.612;13.630;2023-02-11T05:50:56;101941.27;;;4.62;100.00
13367;BME280;6752;52.612;13.630;2023-02-11T05:55:59;101942.97;;;4.63;100.00
13367;BME280;6752;52.612;13.630;2023-02-11T06:01:01;101949.19;;;4.68;100.00
13367;BME280;6752;52.612;13.630;2023-02-11T06:06:03;101942.78;;;4.69;100.00
13367;BME280;6752;52.612;13.630;2023-02-11T06:11:07;101957.86;;;4.67;100.00
13367;BME280;6752;52.612;13.630;2023-02-11T06:16:09;101939.88;;;4.67;100.00
13367;BME280;6752;52.612;13.630;2023-02-11T06:21:12;101945.05;;;4.69;100.00
13367;BME280;6752;52.612;13.630;2023-02-11T06:26:18;101958.33;;;4.71;100.00
13367;BME280;6752;52.612;13.630;2023-02-11T06:31:19;101960.26;;;4.75;100.00
13367;BME280;6752;52.612;13.630;2023-02-11T06:36:21;101937.30;;;4.75;100.00
13367;BME280;6752;52.612;13.630;2023-02-11T06:41:24;101942.55;;;4.76;100.00
13367;BME280;6752;52.612;13.630;2023-02-11T06:46:26;101933.52;;;4.85;100.00
13367;BME280;6752;52.612;13.630;2023-02-11T06:51:28;101934.20;;;4.87;100.00
13367;BME280;6752;52.612;13.630;2023-02-11T06:56:31;101939.91;;;4.93;100.00
13367;BME280;6752;52.612;13.630;2023-02-11T07:01:33;101947.67;;;4.97;100.00
13367;BME280;6752;52.612;13.630;2023-02-11T07:06:35;101938.86;;;5.04;100.00
13367;BME280;6752;52.612;13.630;2023-02-11T07:11:38;101929.24;;;5.05;100.00
13367;BME280;6752;52.612;13.630;2023-02-11T07:16:40;101931.16;;;5.13;100.00
13367;BME280;6752;52.612;13.630;2023-02-11T07:21:42;101937.59;;;5.21;100.00
13367;BME280;6752;52.612;13.630;2023-02-11T07:26:48;101922.06;;;5.23;100.00
13367;BME280;6752;52.612;13.630;2023-02-11T07:31:50;101904.44;;;5.28;100.00
13367;BME280;6752;52.612;13.630;2023-02-11T07:36:52;101894.58;;;5.32;100.00
13367;BME280;6752;52.612;13.630;2023-02-11T07:41:56;101912.95;;;5.37;100.00
13367;BME280;6752;52.612;13.630;2023-02-11T07:46:59;101911.70;;;5.40;100.00
13367;BME280;6752;52.612;13.630;2023-02-11T07:52:01;101899.12;;;5.49;100.00
13367;BME280;6752;52.612;13.630;2023-02-11T07:57:04;101921.94;;;5.50;100.00
13367;BME280;6752;52.612;13.630;2023-02-11T08:02:07;101910.59;;;5.60;100.00
13367;BME280;6752;52.612;13.630;2023-02-11T08:07:08;101935.20;;;5.62;100.00
13367;BME280;6752;52.612;13.630;2023-02-11T08:12:10;101935.14;;;5.75;100.00
13367;BME280;6752;52.612;13.630;2023-02-11T08:17:12;101932.94;;;5.75;100.00
13367;BME280;6752;52.612;13.630;2023-02-11T08:22:14;101947.77;;;5.80;100.00
13367;BME280;6752;52.612;13.630;2023-02-11T08:27:16;101953.78;;;5.82;100.00
13367;BME280;6752;52.612;13.630;2023-02-11T08:32:19;101952.88;;;5.87;100.00
13367;BME280;6752;52.612;13.630;2023-02-11T08:37:21;101955.16;;;5.86;100.00
13367;BME280;6752;52.612;13.630;2023-02-11T08:42:23;101955.42;;;5.88;100.00
13367;BME280;6752;52.612;13.630;2023-02-11T08:47:26;101936.03;;;5.84;100.00
13367;BME280;6752;52.612;13.630;2023-02-11T08:52:28;101922.09;;;5.88;100.00
13367;BME280;6752;52.612;13.630;2023-02-11T08:57:31;101906.16;;;5.90;100.00
13367;BME280;6752;52.612;13.630;2023-02-11T09:02:33;101929.42;;;5.91;100.00
13367;BME280;6752;52.612;13.630;2023-02-11T09:07:35;101944.77;;;5.92;100.00
13367;BME280;6752;52.612;13.630;2023-02-11T09:12:38;101921.09;;;5.94;100.00
13367;BME280;6752;52.612;13.630;2023-02-11T09:17:40;101932.13;;;5.91;100.00
13367;BME280;6752;52.612;13.630;2023-02-11T09:22:42;101972.80;;;5.91;100.00
13367;BME280;6752;52.612;13.630;2023-02-11T09:27:44;101955.77;;;5.94;100.00
13367;BME280;6752;52.612;13.630;2023-02-11T09:32:47;101967.97;;;5.98;100.00
13367;BME280;6752;52.612;13.630;2023-02-11T09:37:51;101980.59;;;6.03;100.00
13367;BME280;6752;52.612;13.630;2023-02-11T09:43:05;101982.37;;;6.03;100.00
13367;BME280;6752;52.612;13.630;2023-02-11T09:48:29;101980.09;;;6.03;100.00
13367;BME280;6752;52.612;13.630;2023-02-11T09:53:14;101995.98;;;6.02;100.00
13367;BME280;6752;52.612;13.630;2023-02-11T09:58:20;101994.66;;;6.06;100.00
13367;BME280;6752;52.612;13.630;2023-02-11T10:03:40;101997.52;;;6.05;100.00
13367;BME280;6752;52.612;13.630;2023-02-11T10:24:55;102018.34;;;6.17;100.00
13367;BME280;6752;52.612;13.630;2023-02-11T10:35:17;101991.69;;;6.34;100.00
13367;BME280;6752;52.612;13.630;2023-02-11T10:40:20;101984.64;;;6.28;100.00
13367;BME280;6752;52.612;13.630;2023-02-11T10:45:29;101973.39;;;6.32;100.00
13367;BME280;6752;52.612;13.630;2023-02-11T10:50:30;101986.23;;;6.26;100.00
13367;BME280;6752;52.612;13.630;2023-02-11T10:55:32;101979.47;;;6.26;100.00
13367;BME280;6752;52.612;13.630;2023-02-11T11:00:37;101976.45;;;6.33;100.00
13367;BME280;6752;52.612;13.630;2023-02-11T11:05:49;101962.03;;;6.42;100.00
13367;BME280;6752;52.612;13.630;2023-02-11T11:11:04;101977.17;;;6.39;100.00
13367;BME280;6752;52.612;13.630;2023-02-11T11:21:34;101974.00;;;6.52;100.00
13367;BME280;6752;52.612;13.630;2023-02-11T11:26:53;101981.12;;;6.53;100.00
13367;BME280;6752;52.612;13.630;2023-02-11T11:31:59;101987.91;;;6.57;100.00
13367;BME280;6752;52.612;13.630;2023-02-11T11:37:09;101972.58;;;6.57;100.00
13367;BME280;6752;52.612;13.630;2023-02-11T11:42:04;101980.25;;;6.66;100.00
13367;BME280;6752;52.612;13.630;2023-02-11T11:52:35;101984.42;;;6.73;100.00
13367;BME280;6752;52.612;13.630;2023-02-11T11:57:35;101985.86;;;6.72;100.00
13367;BME280;6752;52.612;13.630;2023-02-11T12:13:00;101994.56;;;6.92;100.00
13367;BME280;6752;52.612;13.630;2023-02-11T12:18:19;101986.01;;;6.92;100.00
13367;BME280;6752;52.612;13.630;2023-02-11T12:49:35;101992.46;;;6.99;100.00
13367;BME280;6752;52.612;13.630;2023-02-11T12:59:50;102023.55;;;6.96;100.00
13367;BME280;6752;52.612;13.630;2023-02-11T13:04:52;102036.17;;;6.96;100.00
13367;BME280;6752;52.612;13.630;2023-02-11T13:09:58;102040.92;;;6.98;100.00
13367;BME280;6752;52.612;13.630;2023-02-11T13:14:58;102044.55;;;6.89;100.00
13367;BME280;6752;52.612;13.630;2023-02-11T13:20:02;102045.64;;;6.88;100.00
13367;BME280;6752;52.612;13.630;2023-02-11T13:25:06;102045.73;;;6.95;100.00
13367;BME280;6752;52.612;13.630;2023-02-11T13:30:23;102036.67;;;6.91;100.00
13367;BME280;6752;52.612;13.630;2023-02-11T13:40:33;102038.20;;;6.98;100.00
13367;BME280;6752;52.612;13.630;2023-02-11T13:45:41;102045.25;;;7.04;100.00
13367;BME280;6752;52.612;13.630;2023-02-11T13:50:44;102044.92;;;7.07;100.00
13367;BME280;6752;52.612;13.630;2023-02-11T13:55:44;102044.97;;;7.15;100.00
13367;BME280;6752;52.612;13.630;2023-02-11T14:00:49;102055.47;;;7.14;100.00
13367;BME280;6752;52.612;13.630;2023-02-11T14:06:08;102053.36;;;7.21;100.00
13367;BME280;6752;52.612;13.630;2023-02-11T14:11:09;102048.36;;;7.21;100.00
13367;BME280;6752;52.612;13.630;2023-02-11T14:16:17;102054.97;;;7.18;100.00
13367;BME280;6752;52.612;13.630;2023-02-11T14:31:47;102054.39;;;7.28;100.00
13367;BME280;6752;52.612;13.630;2023-02-11T14:36:46;102060.15;;;7.25;100.00
13367;BME280;6752;52.612;13.630;2023-02-11T14:41:46;102067.02;;;7.28;100.00
13367;BME280;6752;52.612;13.630;2023-02-11T14:46:49;102073.03;;;7.27;100.00
13367;BME280;6752;52.612;13.630;2023-02-11T14:51:50;102082.44;;;7.23;100.00
13367;BME280;6752;52.612;13.630;2023-02-11T14:57:15;102091.59;;;7.22;100.00
13367;BME280;6752;52.612;13.630;2023-02-11T15:02:18;102109.47;;;7.24;100.00
13367;BME280;6752;52.612;13.630;2023-02-11T15:07:15;102114.71;;;7.17;100.00
13367;BME280;6752;52.612;13.630;2023-02-11T15:12:18;102125.73;;;7.20;100.00
13367;BME280;6752;52.612;13.630;2023-02-11T15:17:23;102130.81;;;7.15;100.00
13367;BME280;6752;52.612;13.630;2023-02-11T15:22:33;102141.33;;;7.18;100.00
13367;BME280;6752;52.612;13.630;2023-02-11T15:27:42;102149.53;;;7.13;100.00
13367;BME280;6752;52.612;13.630;2023-02-11T15:32:44;102145.70;;;7.11;100.00
13367;BME280;6752;52.612;13.630;2023-02-11T15:37:46;102146.24;;;7.19;100.00
13367;BME280;6752;52.612;13.630;2023-02-11T15:48:13;102159.13;;;7.20;100.00
13367;BME280;6752;52.612;13.630;2023-02-11T15:53:27;102159.28;;;7.15;100.00
13367;BME280;6752;52.612;13.630;2023-02-11T15:58:29;102171.69;;;7.09;100.00
13367;BME280;6752;52.612;13.630;2023-02-11T16:03:31;102177.50;;;7.01;100.00
13367;BME280;6752;52.612;13.630;2023-02-11T16:08:33;102182.50;;;7.01;100.00
13367;BME280;6752;52.612;13.630;2023-02-11T16:13:45;102192.25;;;7.02;100.00
13367;BME280;6752;52.612;13.630;2023-02-11T16:18:49;102188.50;;;6.99;100.00
13367;BME280;6752;52.612;13.630;2023-02-11T16:23:53;102184.05;;;7.07;100.00
13367;BME280;6752;52.612;13.630;2023-02-11T16:28:51;102187.58;;;7.00;100.00
13367;BME280;6752;52.612;13.630;2023-02-11T16:33:54;102191.70;;;6.95;100.00
13367;BME280;6752;52.612;13.630;2023-02-11T16:38:56;102194.76;;;6.96;100.00
13367;BME280;6752;52.612;13.630;2023-02-11T16:43:59;102213.90;;;6.94;100.00
13367;BME280;6752;52.612;13.630;2023-02-11T16:49:09;102217.72;;;6.97;100.00
13367;BME280;6752;52.612;13.630;2023-02-11T16:54:13;102228.73;;;6.95;100.00
13367;BME280;6752;52.612;13.630;2023-02-11T16:59:15;102238.52;;;7.05;100.00
13367;BME280;6752;52.612;13.630;2023-02-11T17:04:22;102245.56;;;7.07;100.00
13367;BME280;6752;52.612;13.630;2023-02-11T17:09:24;102248.20;;;7.07;100.00
13367;BME280;6752;52.612;13.630;2023-02-11T17:14:25;102253.34;;;7.15;100.00
13367;BME280;6752;52.612;13.630;2023-02-11T17:19:27;102249.26;;;7.11;100.00
13367;BME280;6752;52.612;13.630;2023-02-11T17:24:28;102253.42;;;7.14;100.00
13367;BME280;6752;52.612;13.630;2023-02-11T17:29:30;102258.59;;;7.12;100.00
13367;BME280;6752;52.612;13.630;2023-02-11T17:34:32;102269.28;;;7.05;100.00
13367;BME280;6752;52.612;13.630;2023-02-11T17:39:35;102266.20;;;7.00;100.00
13367;BME280;6752;52.612;13.630;2023-02-11T17:44:37;102274.09;;;7.02;100.00
13367;BME280;6752;52.612;13.630;2023-02-11T17:49:40;102289.35;;;7.03;100.00
13367;BME280;6752;52.612;13.630;2023-02-11T17:54:41;102287.28;;;6.97;100.00
13367;BME280;6752;52.612;13.630;2023-02-11T17:59:44;102296.45;;;7.00;100.00
13367;BME280;6752;52.612;13.630;2023-02-11T18:04:46;102307.22;;;7.01;100.00
13367;BME280;6752;52.612;13.630;2023-02-11T18:09:49;102302.35;;;6.95;100.00
13367;BME280;6752;52.612;13.630;2023-02-11T18:14:51;102321.25;;;7.09;100.00
13367;BME280;6752;52.612;13.630;2023-02-11T18:19:56;102324.09;;;7.03;100.00
13367;BME280;6752;52.612;13.630;2023-02-11T18:24:58;102332.48;;;6.92;100.00
13367;BME280;6752;52.612;13.630;2023-02-11T18:30:01;102328.11;;;6.95;100.00
13367;BME280;6752;52.612;13.630;2023-02-11T18:35:03;102345.63;;;6.92;100.00
13367;BME280;6752;52.612;13.630;2023-02-11T18:40:10;102357.31;;;6.92;100.00
13367;BME280;6752;52.612;13.630;2023-02-11T18:45:15;102367.70;;;6.88;100.00
13367;BME280;6752;52.612;13.630;2023-02-11T18:50:17;102375.25;;;6.89;100.00
13367;BME280;6752;52.612;13.630;2023-02-11T18:55:19;102376.00;;;6.82;100.00
13367;BME280;6752;52.612;13.630;2023-02-11T19:00:22;102388.84;;;6.93;100.00
13367;BME280;6752;52.612;13.630;2023-02-11T19:05:24;102387.53;;;6.89;100.00
13367;BME280;6752;52.612;13.630;2023-02-11T19:10:29;102398.70;;;6.81;100.00
13367;BME280;6752;52.612;13.630;2023-02-11T19:15:31;102389.02;;;6.78;100.00
13367;BME280;6752;52.612;13.630;2023-02-11T19:20:33;102412.09;;;6.82;100.00
13367;BME280;6752;52.612;13.630;2023-02-11T19:25:36;102424.60;;;6.79;100.00
13367;BME280;6752;52.612;13.630;2023-02-11T19:30:38;102424.95;;;6.80;100.00
13367;BME280;6752;52.612;13.630;2023-02-11T19:35:41;102418.85;;;6.96;100.00
13367;BME280;6752;52.612;13.630;2023-02-11T19:40:43;102413.57;;;6.77;100.00
13367;BME280;6752;52.612;13.630;2023-02-11T19:45:45;102418.83;;;6.78;100.00
13367;BME280;6752;52.612;13.630;2023-02-11T19:50:48;102417.37;;;6.75;100.00
13367;BME280;6752;52.612;13.630;2023-02-11T19:55:50;102423.91;;;6.68;100.00
13367;BME280;6752;52.612;13.630;2023-02-11T20:00:53;102432.86;;;6.65;100.00
13367;BME280;6752;52.612;13.630;2023-02-11T20:05:55;102453.14;;;6.70;100.00
13367;BME280;6752;52.612;13.630;2023-02-11T20:11:08;102452.17;;;6.75;100.00
13367;BME280;6752;52.612;13.630;2023-02-11T20:16:11;102449.08;;;6.70;100.00
13367;BME280;6752;52.612;13.630;2023-02-11T20:21:29;102471.84;;;6.77;100.00
13367;BME280;6752;52.612;13.630;2023-02-11T20:26:31;102461.20;;;6.70;100.00
13367;BME280;6752;52.612;13.630;2023-02-11T20:31:34;102475.20;;;6.61;100.00
13367;BME280;6752;52.612;13.630;2023-02-11T20:36:36;102481.48;;;6.61;100.00
13367;BME280;6752;52.612;13.630;2023-02-11T20:41:38;102500.92;;;6.71;100.00
13367;BME280;6752;52.612;13.630;2023-02-11T20:46:41;102496.45;;;6.66;100.00
13367;BME280;6752;52.612;13.630;2023-02-11T20:51:43;102501.07;;;6.69;100.00
13367;BME280;6752;52.612;13.630;2023-02-11T20:56:45;102504.20;;;6.69;100.00
13367;BME280;6752;52.612;13.630;2023-02-11T21:01:49;102509.87;;;6.76;100.00
13367;BME280;6752;52.612;13.630;2023-02-11T21:06:51;102527.52;;;6.71;100.00
13367;BME280;6752;52.612;13.630;2023-02-11T21:11:53;102531.17;;;6.80;100.00
13367;BME280;6752;52.612;13.630;2023-02-11T21:17:04;102539.07;;;6.82;100.00
13367;BME280;6752;52.612;13.630;2023-02-11T21:22:06;102540.72;;;6.70;100.00
13367;BME280;6752;52.612;13.630;2023-02-11T21:27:08;102547.16;;;6.78;100.00
13367;BME280;6752;52.612;13.630;2023-02-11T21:32:11;102553.04;;;6.55;100.00
13367;BME280;6752;52.612;13.630;2023-02-11T21:37:13;102552.78;;;6.62;100.00
13367;BME280;6752;52.612;13.630;2023-02-11T21:42:15;102564.63;;;6.61;100.00
13367;BME280;6752;52.612;13.630;2023-02-11T21:47:17;102565.19;;;6.69;100.00
13367;BME280;6752;52.612;13.630;2023-02-11T21:52:38;102576.13;;;6.64;100.00
13367;BME280;6752;52.612;13.630;2023-02-11T21:57:41;102585.88;;;6.61;100.00
13367;BME280;6752;52.612;13.630;2023-02-11T22:02:43;102583.84;;;6.54;100.00
13367;BME280;6752;52.612;13.630;2023-02-11T22:07:45;102589.92;;;6.52;100.00
13367;BME280;6752;52.612;13.630;2023-02-11T22:12:48;102602.87;;;6.63;100.00
13367;BME280;6752;52.612;13.630;2023-02-11T22:17:50;102617.44;;;6.52;100.00
13367;BME280;6752;52.612;13.630;2023-02-11T22:22:52;102607.48;;;6.61;100.00
13367;BME280;6752;52.612;13.630;2023-02-11T22:27:54;102626.72;;;6.50;100.00
13367;BME280;6752;52.612;13.630;2023-02-11T22:32:56;102630.13;;;6.52;100.00
13367;BME280;6752;52.612;13.630;2023-02-11T22:37:59;102633.22;;;6.48;100.00
13367;BME280;6752;52.612;13.630;2023-02-11T22:43:01;102633.45;;;6.41;100.00
13367;BME280;6752;52.612;13.630;2023-02-11T22:48:22;102643.44;;;6.30;100.00
13367;BME280;6752;52.612;13.630;2023-02-11T22:53:24;102647.28;;;6.33;100.00
13367;BME280;6752;52.612;13.630;2023-02-11T22:58:26;102656.75;;;6.47;100.00
13367;BME280;6752;52.612;13.630;2023-02-11T23:03:28;102656.19;;;6.44;100.00
13367;BME280;6752;52.612;13.630;2023-02-11T23:08:31;102657.61;;;6.33;100.00
13367;BME280;6752;52.612;13.630;2023-02-11T23:13:34;102673.73;;;6.30;100.00
13367;BME280;6752;52.612;13.630;2023-02-11T23:18:36;102677.39;;;6.20;100.00
13367;BME280;6752;52.612;13.630;2023-02-11T23:23:38;102673.52;;;6.27;100.00
13367;BME280;6752;52.612;13.630;2023-02-11T23:28:40;102667.84;;;6.21;100.00
13367;BME280;6752;52.612;13.630;2023-02-11T23:33:43;102675.73;;;6.28;100.00
13367;BME280;6752;52.612;13.630;2023-02-11T23:38:45;102680.95;;;6.16;100.00
13367;BME280;6752;52.612;13.630;2023-02-11T23:43:48;102694.77;;;6.23;100.00
13367;BME280;6752;52.612;13.630;2023-02-11T23:48:50;102685.44;;;6.21;100.00
13367;BME280;6752;52.612;13.630;2023-02-11T23:53:52;102693.20;;;6.05;100.00
13367;BME280;6752;52.612;13.630;2023-02-11T23:58:55;102698.98;;;6.16;100.00
